sensor_id;sensor_type;location;lat;lon;timestamp;P1;durP1;ratioP1;P2;durP2;ratioP2
65656;SDS011;57397;50.096;14.404;2022-08-19T00:01:43;5.07;;;3.30;;
65656;SDS011;57397;50.096;14.404;2022-08-19T00:04:10;5.35;;;3.10;;
65656;SDS011;57397;50.096;14.404;2022-08-19T00:06:38;4.50;;;3.33;;
65656;SDS011;57397;50.096;14.404;2022-08-19T00:09:05;4.40;;;3.35;;
65656;SDS011;57397;50.096;14.404;2022-08-19T00:11:31;5.07;;;3.00;;
65656;SDS011;57397;50.096;14.404;2022-08-19T00:13:57;4.70;;;3.50;;
65656;SDS011;57397;50.096;14.404;2022-08-19T00:16:23;7.13;;;3.50;;
65656;SDS011;57397;50.096;14.404;2022-08-19T00:18:49;5.57;;;3.15;;
65656;SDS011;57397;50.096;14.404;2022-08-19T00:21:15;6.15;;;3.55;;
65656;SDS011;57397;50.096;14.404;2022-08-19T00:23:41;5.38;;;3.20;;
65656;SDS011;57397;50.096;14.404;2022-08-19T00:26:08;4.88;;;3.17;;
65656;SDS011;57397;50.096;14.404;2022-08-19T00:28:34;5.95;;;3.33;;
65656;SDS011;57397;50.096;14.404;2022-08-19T00:31:01;4.32;;;3.42;;
65656;SDS011;57397;50.096;14.404;2022-08-19T00:33:28;5.65;;;3.60;;
65656;SDS011;57397;50.096;14.404;2022-08-19T00:35:56;4.18;;;3.25;;
65656;SDS011;57397;50.096;14.404;2022-08-19T00:38:22;4.68;;;3.20;;
65656;SDS011;57397;50.096;14.404;2022-08-19T00:40:47;6.30;;;4.03;;
65656;SDS011;57397;50.096;14.404;2022-08-19T00:43:14;4.95;;;3.20;;
65656;SDS011;57397;50.096;14.404;2022-08-19T00:45:44;5.38;;;3.58;;
65656;SDS011;57397;50.096;14.404;2022-08-19T00:48:10;6.70;;;3.38;;
65656;SDS011;57397;50.096;14.404;2022-08-19T00:50:35;4.97;;;3.30;;
65656;SDS011;57397;50.096;14.404;2022-08-19T00:53:01;6.60;;;3.38;;
65656;SDS011;57397;50.096;14.404;2022-08-19T00:55:29;5.60;;;3.20;;
65656;SDS011;57397;50.096;14.404;2022-08-19T00:57:58;4.40;;;3.22;;
65656;SDS011;57397;50.096;14.404;2022-08-19T01:00:26;5.28;;;3.50;;
65656;SDS011;57397;50.096;14.404;2022-08-19T01:02:52;4.47;;;3.20;;
65656;SDS011;57397;50.096;14.404;2022-08-19T01:05:22;4.70;;;3.00;;
65656;SDS011;57397;50.096;14.404;2022-08-19T01:07:52;5.03;;;3.10;;
65656;SDS011;57397;50.096;14.404;2022-08-19T01:10:19;7.05;;;3.33;;
65656;SDS011;57397;50.096;14.404;2022-08-19T01:12:47;8.13;;;4.10;;
65656;SDS011;57397;50.096;14.404;2022-08-19T01:15:15;7.15;;;3.20;;
65656;SDS011;57397;50.096;14.404;2022-08-19T01:17:42;4.93;;;3.28;;
65656;SDS011;57397;50.096;14.404;2022-08-19T01:20:12;4.72;;;3.30;;
65656;SDS011;57397;50.096;14.404;2022-08-19T01:25:09;6.82;;;3.55;;
65656;SDS011;57397;50.096;14.404;2022-08-19T01:27:39;5.80;;;3.40;;
65656;SDS011;57397;50.096;14.404;2022-08-19T01:30:06;4.47;;;3.50;;
65656;SDS011;57397;50.096;14.404;2022-08-19T01:32:32;4.97;;;3.20;;
65656;SDS011;57397;50.096;14.404;2022-08-19T01:34:58;6.22;;;3.28;;
65656;SDS011;57397;50.096;14.404;2022-08-19T01:37:26;5.68;;;3.05;;
65656;SDS011;57397;50.096;14.404;2022-08-19T01:39:51;5.07;;;3.20;;
65656;SDS011;57397;50.096;14.404;2022-08-19T01:42:17;6.82;;;3.03;;
65656;SDS011;57397;50.096;14.404;2022-08-19T01:44:43;5.78;;;3.10;;
65656;SDS011;57397;50.096;14.404;2022-08-19T01:47:08;7.10;;;3.20;;
65656;SDS011;57397;50.096;14.404;2022-08-19T01:49:37;6.20;;;3.42;;
65656;SDS011;57397;50.096;14.404;2022-08-19T01:52:03;6.95;;;3.22;;
65656;SDS011;57397;50.096;14.404;2022-08-19T01:54:29;7.63;;;3.50;;
65656;SDS011;57397;50.096;14.404;2022-08-19T01:56:56;7.90;;;3.20;;
65656;SDS011;57397;50.096;14.404;2022-08-19T01:59:24;7.97;;;3.80;;
65656;SDS011;57397;50.096;14.404;2022-08-19T02:01:50;4.80;;;3.20;;
65656;SDS011;57397;50.096;14.404;2022-08-19T02:04:15;8.35;;;4.10;;
65656;SDS011;57397;50.096;14.404;2022-08-19T02:06:41;8.93;;;3.90;;
65656;SDS011;57397;50.096;14.404;2022-08-19T02:09:07;8.95;;;4.00;;
65656;SDS011;57397;50.096;14.404;2022-08-19T02:11:34;6.55;;;3.90;;
65656;SDS011;57397;50.096;14.404;2022-08-19T02:14:02;11.10;;;4.15;;
65656;SDS011;57397;50.096;14.404;2022-08-19T02:16:30;9.50;;;4.35;;
65656;SDS011;57397;50.096;14.404;2022-08-19T02:18:56;8.52;;;4.22;;
65656;SDS011;57397;50.096;14.404;2022-08-19T02:21:22;8.10;;;4.28;;
65656;SDS011;57397;50.096;14.404;2022-08-19T02:24:00;8.35;;;4.57;;
65656;SDS011;57397;50.096;14.404;2022-08-19T02:26:26;10.48;;;4.60;;
65656;SDS011;57397;50.096;14.404;2022-08-19T02:28:59;10.90;;;4.75;;
65656;SDS011;57397;50.096;14.404;2022-08-19T02:31:28;5.68;;;4.93;;
65656;SDS011;57397;50.096;14.404;2022-08-19T02:33:55;7.95;;;5.00;;
65656;SDS011;57397;50.096;14.404;2022-08-19T02:36:29;11.90;;;4.75;;
65656;SDS011;57397;50.096;14.404;2022-08-19T02:39:16;5.25;;;4.75;;
65656;SDS011;57397;50.096;14.404;2022-08-19T02:41:42;6.22;;;4.78;;
65656;SDS011;57397;50.096;14.404;2022-08-19T02:44:07;8.27;;;4.72;;
65656;SDS011;57397;50.096;14.404;2022-08-19T02:46:33;11.85;;;4.95;;
65656;SDS011;57397;50.096;14.404;2022-08-19T02:49:00;7.68;;;5.40;;
65656;SDS011;57397;50.096;14.404;2022-08-19T02:51:37;10.70;;;5.40;;
65656;SDS011;57397;50.096;14.404;2022-08-19T02:54:05;10.80;;;4.93;;
65656;SDS011;57397;50.096;14.404;2022-08-19T02:56:33;13.73;;;4.82;;
65656;SDS011;57397;50.096;14.404;2022-08-19T02:59:00;10.32;;;5.00;;
65656;SDS011;57397;50.096;14.404;2022-08-19T03:01:30;6.65;;;4.78;;
65656;SDS011;57397;50.096;14.404;2022-08-19T03:03:57;5.82;;;4.65;;
65656;SDS011;57397;50.096;14.404;2022-08-19T03:06:24;6.60;;;4.70;;
65656;SDS011;57397;50.096;14.404;2022-08-19T03:08:50;14.02;;;4.88;;
65656;SDS011;57397;50.096;14.404;2022-08-19T03:11:17;7.25;;;5.03;;
65656;SDS011;57397;50.096;14.404;2022-08-19T03:13:43;9.02;;;5.95;;
65656;SDS011;57397;50.096;14.404;2022-08-19T03:16:09;7.00;;;5.40;;
65656;SDS011;57397;50.096;14.404;2022-08-19T03:18:35;6.63;;;5.75;;
65656;SDS011;57397;50.096;14.404;2022-08-19T03:21:01;6.78;;;5.00;;
65656;SDS011;57397;50.096;14.404;2022-08-19T03:23:26;7.45;;;5.70;;
65656;SDS011;57397;50.096;14.404;2022-08-19T03:25:52;7.05;;;5.28;;
65656;SDS011;57397;50.096;14.404;2022-08-19T03:28:19;7.38;;;5.78;;
65656;SDS011;57397;50.096;14.404;2022-08-19T03:30:54;6.85;;;5.32;;
65656;SDS011;57397;50.096;14.404;2022-08-19T03:33:21;7.70;;;5.32;;
65656;SDS011;57397;50.096;14.404;2022-08-19T03:35:58;6.97;;;5.18;;
65656;SDS011;57397;50.096;14.404;2022-08-19T03:38:55;7.22;;;5.38;;
65656;SDS011;57397;50.096;14.404;2022-08-19T03:41:25;8.90;;;5.55;;
65656;SDS011;57397;50.096;14.404;2022-08-19T03:43:58;7.70;;;5.20;;
65656;SDS011;57397;50.096;14.404;2022-08-19T03:46:30;8.60;;;5.45;;
65656;SDS011;57397;50.096;14.404;2022-08-19T03:48:57;6.32;;;5.70;;
65656;SDS011;57397;50.096;14.404;2022-08-19T03:51:24;7.22;;;5.65;;
65656;SDS011;57397;50.096;14.404;2022-08-19T03:54:01;6.47;;;5.45;;
65656;SDS011;57397;50.096;14.404;2022-08-19T03:56:28;7.38;;;5.30;;
65656;SDS011;57397;50.096;14.404;2022-08-19T03:58:55;6.57;;;5.15;;
65656;SDS011;57397;50.096;14.404;2022-08-19T04:01:22;7.20;;;5.45;;
65656;SDS011;57397;50.096;14.404;2022-08-19T04:03:49;6.20;;;5.25;;
65656;SDS011;57397;50.096;14.404;2022-08-19T04:08:46;6.07;;;5.47;;
65656;SDS011;57397;50.096;14.404;2022-08-19T04:11:13;5.82;;;5.22;;
65656;SDS011;57397;50.096;14.404;2022-08-19T04:13:40;6.13;;;5.53;;
65656;SDS011;57397;50.096;14.404;2022-08-19T04:16:08;6.28;;;5.40;;
65656;SDS011;57397;50.096;14.404;2022-08-19T04:18:35;6.13;;;5.50;;
65656;SDS011;57397;50.096;14.404;2022-08-19T04:21:01;8.50;;;6.05;;
65656;SDS011;57397;50.096;14.404;2022-08-19T04:23:27;6.40;;;5.53;;
65656;SDS011;57397;50.096;14.404;2022-08-19T04:25:53;7.25;;;5.57;;
65656;SDS011;57397;50.096;14.404;2022-08-19T04:28:19;6.25;;;5.50;;
65656;SDS011;57397;50.096;14.404;2022-08-19T04:30:46;7.15;;;5.68;;
65656;SDS011;57397;50.096;14.404;2022-08-19T04:33:14;7.93;;;6.07;;
65656;SDS011;57397;50.096;14.404;2022-08-19T04:35:41;8.00;;;6.53;;
65656;SDS011;57397;50.096;14.404;2022-08-19T04:38:08;10.07;;;6.80;;
65656;SDS011;57397;50.096;14.404;2022-08-19T04:40:39;10.75;;;6.88;;
65656;SDS011;57397;50.096;14.404;2022-08-19T04:43:24;9.52;;;6.47;;
65656;SDS011;57397;50.096;14.404;2022-08-19T04:45:49;8.55;;;7.57;;
65656;SDS011;57397;50.096;14.404;2022-08-19T04:48:16;8.50;;;7.43;;
65656;SDS011;57397;50.096;14.404;2022-08-19T04:53:32;12.18;;;8.13;;
65656;SDS011;57397;50.096;14.404;2022-08-19T04:55:59;10.27;;;7.97;;
65656;SDS011;57397;50.096;14.404;2022-08-19T04:58:28;12.43;;;8.27;;
65656;SDS011;57397;50.096;14.404;2022-08-19T05:00:53;10.02;;;8.80;;
65656;SDS011;57397;50.096;14.404;2022-08-19T05:03:19;12.20;;;8.70;;
65656;SDS011;57397;50.096;14.404;2022-08-19T05:05:45;11.73;;;8.85;;
65656;SDS011;57397;50.096;14.404;2022-08-19T05:08:14;13.43;;;9.38;;
65656;SDS011;57397;50.096;14.404;2022-08-19T05:10:45;15.38;;;9.40;;
65656;SDS011;57397;50.096;14.404;2022-08-19T05:13:12;12.10;;;9.25;;
65656;SDS011;57397;50.096;14.404;2022-08-19T05:15:38;13.75;;;9.48;;
65656;SDS011;57397;50.096;14.404;2022-08-19T05:18:03;10.63;;;9.23;;
65656;SDS011;57397;50.096;14.404;2022-08-19T05:20:47;12.25;;;9.60;;
65656;SDS011;57397;50.096;14.404;2022-08-19T05:23:31;12.63;;;10.00;;
65656;SDS011;57397;50.096;14.404;2022-08-19T05:25:56;13.48;;;10.77;;
65656;SDS011;57397;50.096;14.404;2022-08-19T05:28:22;13.05;;;11.10;;
65656;SDS011;57397;50.096;14.404;2022-08-19T05:30:47;12.68;;;10.52;;
65656;SDS011;57397;50.096;14.404;2022-08-19T05:33:15;14.02;;;10.68;;
65656;SDS011;57397;50.096;14.404;2022-08-19T05:35:40;17.55;;;10.93;;
65656;SDS011;57397;50.096;14.404;2022-08-19T05:38:06;13.00;;;10.82;;
65656;SDS011;57397;50.096;14.404;2022-08-19T05:40:37;15.15;;;11.13;;
65656;SDS011;57397;50.096;14.404;2022-08-19T05:43:04;13.02;;;10.93;;
65656;SDS011;57397;50.096;14.404;2022-08-19T05:45:30;14.38;;;11.10;;
65656;SDS011;57397;50.096;14.404;2022-08-19T05:47:55;14.25;;;10.98;;
65656;SDS011;57397;50.096;14.404;2022-08-19T05:50:21;13.15;;;10.80;;
65656;SDS011;57397;50.096;14.404;2022-08-19T05:52:47;13.07;;;10.95;;
65656;SDS011;57397;50.096;14.404;2022-08-19T05:55:12;13.13;;;10.70;;
65656;SDS011;57397;50.096;14.404;2022-08-19T05:57:38;13.02;;;10.32;;
65656;SDS011;57397;50.096;14.404;2022-08-19T06:00:04;11.98;;;9.80;;
65656;SDS011;57397;50.096;14.404;2022-08-19T06:02:34;12.68;;;10.20;;
65656;SDS011;57397;50.096;14.404;2022-08-19T06:05:00;12.15;;;10.15;;
65656;SDS011;57397;50.096;14.404;2022-08-19T06:07:27;12.02;;;10.60;;
65656;SDS011;57397;50.096;14.404;2022-08-19T06:09:53;12.48;;;10.98;;
65656;SDS011;57397;50.096;14.404;2022-08-19T06:12:19;14.38;;;10.05;;
65656;SDS011;57397;50.096;14.404;2022-08-19T06:14:44;12.35;;;10.27;;
65656;SDS011;57397;50.096;14.404;2022-08-19T06:17:10;10.85;;;9.18;;
65656;SDS011;57397;50.096;14.404;2022-08-19T06:19:36;11.52;;;9.48;;
65656;SDS011;57397;50.096;14.404;2022-08-19T06:22:04;15.30;;;10.32;;
65656;SDS011;57397;50.096;14.404;2022-08-19T06:24:30;14.13;;;10.13;;
65656;SDS011;57397;50.096;14.404;2022-08-19T06:26:59;13.15;;;9.48;;
65656;SDS011;57397;50.096;14.404;2022-08-19T06:29:26;15.18;;;10.18;;
65656;SDS011;57397;50.096;14.404;2022-08-19T06:31:54;13.43;;;9.90;;
65656;SDS011;57397;50.096;14.404;2022-08-19T06:34:21;12.38;;;10.43;;
65656;SDS011;57397;50.096;14.404;2022-08-19T06:36:47;11.55;;;9.82;;
65656;SDS011;57397;50.096;14.404;2022-08-19T06:39:18;11.40;;;10.10;;
65656;SDS011;57397;50.096;14.404;2022-08-19T06:41:46;13.02;;;10.48;;
65656;SDS011;57397;50.096;14.404;2022-08-19T06:44:16;11.95;;;9.90;;
65656;SDS011;57397;50.096;14.404;2022-08-19T06:46:42;15.13;;;9.40;;
65656;SDS011;57397;50.096;14.404;2022-08-19T06:49:08;10.95;;;9.55;;
65656;SDS011;57397;50.096;14.404;2022-08-19T06:51:38;13.27;;;9.65;;
65656;SDS011;57397;50.096;14.404;2022-08-19T06:54:04;11.20;;;9.73;;
65656;SDS011;57397;50.096;14.404;2022-08-19T06:56:30;12.70;;;10.13;;
65656;SDS011;57397;50.096;14.404;2022-08-19T06:58:59;14.13;;;9.80;;
65656;SDS011;57397;50.096;14.404;2022-08-19T07:01:36;13.13;;;10.70;;
65656;SDS011;57397;50.096;14.404;2022-08-19T07:04:06;15.43;;;10.75;;
65656;SDS011;57397;50.096;14.404;2022-08-19T07:06:32;12.20;;;9.70;;
65656;SDS011;57397;50.096;14.404;2022-08-19T07:08:57;12.02;;;9.77;;
65656;SDS011;57397;50.096;14.404;2022-08-19T07:11:23;12.52;;;10.48;;
65656;SDS011;57397;50.096;14.404;2022-08-19T07:13:49;14.90;;;9.85;;
65656;SDS011;57397;50.096;14.404;2022-08-19T07:16:17;11.43;;;9.85;;
65656;SDS011;57397;50.096;14.404;2022-08-19T07:18:45;10.80;;;9.60;;
65656;SDS011;57397;50.096;14.404;2022-08-19T07:21:13;13.80;;;10.07;;
65656;SDS011;57397;50.096;14.404;2022-08-19T07:23:46;12.55;;;10.52;;
65656;SDS011;57397;50.096;14.404;2022-08-19T07:26:25;11.40;;;9.48;;
65656;SDS011;57397;50.096;14.404;2022-08-19T07:28:53;12.63;;;9.82;;
65656;SDS011;57397;50.096;14.404;2022-08-19T07:31:20;11.88;;;9.88;;
65656;SDS011;57397;50.096;14.404;2022-08-19T07:33:48;12.55;;;9.90;;
65656;SDS011;57397;50.096;14.404;2022-08-19T07:36:17;10.88;;;8.88;;
65656;SDS011;57397;50.096;14.404;2022-08-19T07:38:45;11.25;;;9.32;;
65656;SDS011;57397;50.096;14.404;2022-08-19T07:41:14;10.35;;;9.25;;
65656;SDS011;57397;50.096;14.404;2022-08-19T07:43:41;11.95;;;9.38;;
65656;SDS011;57397;50.096;14.404;2022-08-19T07:46:08;10.45;;;9.25;;
65656;SDS011;57397;50.096;14.404;2022-08-19T07:48:35;10.35;;;9.20;;
65656;SDS011;57397;50.096;14.404;2022-08-19T07:51:03;10.07;;;9.00;;
65656;SDS011;57397;50.096;14.404;2022-08-19T07:53:31;11.07;;;9.40;;
65656;SDS011;57397;50.096;14.404;2022-08-19T07:56:00;10.25;;;8.88;;
65656;SDS011;57397;50.096;14.404;2022-08-19T07:58:30;10.82;;;9.63;;
65656;SDS011;57397;50.096;14.404;2022-08-19T08:00:58;10.13;;;8.88;;
65656;SDS011;57397;50.096;14.404;2022-08-19T08:03:24;10.50;;;9.07;;
65656;SDS011;57397;50.096;14.404;2022-08-19T08:06:10;10.77;;;8.88;;
65656;SDS011;57397;50.096;14.404;2022-08-19T08:08:54;11.18;;;9.45;;
65656;SDS011;57397;50.096;14.404;2022-08-19T08:11:42;11.88;;;9.90;;
65656;SDS011;57397;50.096;14.404;2022-08-19T08:14:23;11.30;;;9.88;;
65656;SDS011;57397;50.096;14.404;2022-08-19T08:16:51;11.02;;;9.35;;
65656;SDS011;57397;50.096;14.404;2022-08-19T08:19:18;12.10;;;9.55;;
65656;SDS011;57397;50.096;14.404;2022-08-19T08:21:46;11.52;;;10.20;;
65656;SDS011;57397;50.096;14.404;2022-08-19T08:24:11;12.35;;;10.05;;
65656;SDS011;57397;50.096;14.404;2022-08-19T08:26:37;11.98;;;9.40;;
65656;SDS011;57397;50.096;14.404;2022-08-19T08:29:03;11.38;;;9.18;;
65656;SDS011;57397;50.096;14.404;2022-08-19T08:31:28;11.38;;;9.82;;
65656;SDS011;57397;50.096;14.404;2022-08-19T08:33:54;11.50;;;9.80;;
65656;SDS011;57397;50.096;14.404;2022-08-19T08:36:19;11.25;;;10.05;;
65656;SDS011;57397;50.096;14.404;2022-08-19T08:38:45;11.57;;;10.10;;
65656;SDS011;57397;50.096;14.404;2022-08-19T08:43:45;11.93;;;10.38;;
65656;SDS011;57397;50.096;14.404;2022-08-19T08:46:13;11.82;;;10.25;;
65656;SDS011;57397;50.096;14.404;2022-08-19T08:51:14;11.05;;;9.80;;
65656;SDS011;57397;50.096;14.404;2022-08-19T08:53:43;10.90;;;9.70;;
65656;SDS011;57397;50.096;14.404;2022-08-19T08:56:10;12.50;;;10.05;;
65656;SDS011;57397;50.096;14.404;2022-08-19T08:58:42;14.30;;;9.75;;
65656;SDS011;57397;50.096;14.404;2022-08-19T09:01:12;11.32;;;9.52;;
65656;SDS011;57397;50.096;14.404;2022-08-19T09:03:38;12.27;;;9.48;;
65656;SDS011;57397;50.096;14.404;2022-08-19T09:06:12;12.18;;;9.85;;
65656;SDS011;57397;50.096;14.404;2022-08-19T09:09:01;11.65;;;9.77;;
65656;SDS011;57397;50.096;14.404;2022-08-19T09:16:53;11.48;;;9.90;;
65656;SDS011;57397;50.096;14.404;2022-08-19T09:19:18;11.80;;;9.73;;
65656;SDS011;57397;50.096;14.404;2022-08-19T09:21:43;17.60;;;9.30;;
65656;SDS011;57397;50.096;14.404;2022-08-19T09:24:10;14.30;;;10.10;;
65656;SDS011;57397;50.096;14.404;2022-08-19T09:26:35;15.60;;;9.38;;
65656;SDS011;57397;50.096;14.404;2022-08-19T09:29:01;15.82;;;10.32;;
65656;SDS011;57397;50.096;14.404;2022-08-19T09:31:30;15.98;;;9.77;;
65656;SDS011;57397;50.096;14.404;2022-08-19T09:34:04;12.63;;;9.30;;
65656;SDS011;57397;50.096;14.404;2022-08-19T09:36:30;13.70;;;9.82;;
65656;SDS011;57397;50.096;14.404;2022-08-19T09:39:05;14.48;;;9.10;;
65656;SDS011;57397;50.096;14.404;2022-08-19T09:41:33;13.48;;;9.45;;
65656;SDS011;57397;50.096;14.404;2022-08-19T09:43:59;12.65;;;9.52;;
65656;SDS011;57397;50.096;14.404;2022-08-19T09:46:27;13.00;;;9.60;;
65656;SDS011;57397;50.096;14.404;2022-08-19T09:48:56;14.00;;;9.73;;
65656;SDS011;57397;50.096;14.404;2022-08-19T09:51:27;11.52;;;9.38;;
65656;SDS011;57397;50.096;14.404;2022-08-19T09:53:54;13.30;;;9.23;;
65656;SDS011;57397;50.096;14.404;2022-08-19T09:56:23;11.70;;;9.07;;
65656;SDS011;57397;50.096;14.404;2022-08-19T09:58:51;11.73;;;9.63;;
65656;SDS011;57397;50.096;14.404;2022-08-19T10:01:19;13.75;;;9.13;;
65656;SDS011;57397;50.096;14.404;2022-08-19T10:03:50;11.88;;;9.80;;
65656;SDS011;57397;50.096;14.404;2022-08-19T10:06:20;15.73;;;9.57;;
65656;SDS011;57397;50.096;14.404;2022-08-19T10:08:47;11.82;;;9.65;;
65656;SDS011;57397;50.096;14.404;2022-08-19T10:11:13;11.20;;;9.40;;
65656;SDS011;57397;50.096;14.404;2022-08-19T10:13:41;11.40;;;9.10;;
65656;SDS011;57397;50.096;14.404;2022-08-19T10:16:09;11.52;;;10.05;;
65656;SDS011;57397;50.096;14.404;2022-08-19T10:18:37;11.23;;;9.95;;
65656;SDS011;57397;50.096;14.404;2022-08-19T10:21:11;11.00;;;9.75;;
65656;SDS011;57397;50.096;14.404;2022-08-19T10:23:39;10.63;;;8.82;;
65656;SDS011;57397;50.096;14.404;2022-08-19T10:26:10;12.70;;;9.43;;
65656;SDS011;57397;50.096;14.404;2022-08-19T10:28:42;11.32;;;9.50;;
65656;SDS011;57397;50.096;14.404;2022-08-19T10:31:10;11.75;;;9.35;;
65656;SDS011;57397;50.096;14.404;2022-08-19T10:33:38;11.93;;;9.88;;
65656;SDS011;57397;50.096;14.404;2022-08-19T10:36:09;11.73;;;9.48;;
65656;SDS011;57397;50.096;14.404;2022-08-19T10:38:39;11.52;;;9.50;;
65656;SDS011;57397;50.096;14.404;2022-08-19T10:41:41;11.07;;;9.52;;
65656;SDS011;57397;50.096;14.404;2022-08-19T10:44:08;13.07;;;9.85;;
65656;SDS011;57397;50.096;14.404;2022-08-19T10:46:38;11.02;;;9.30;;
65656;SDS011;57397;50.096;14.404;2022-08-19T10:49:07;11.90;;;9.50;;
65656;SDS011;57397;50.096;14.404;2022-08-19T10:51:34;12.18;;;9.45;;
65656;SDS011;57397;50.096;14.404;2022-08-19T10:56:44;10.88;;;9.20;;
65656;SDS011;57397;50.096;14.404;2022-08-19T10:59:16;10.40;;;9.15;;
65656;SDS011;57397;50.096;14.404;2022-08-19T11:01:53;12.88;;;10.00;;
65656;SDS011;57397;50.096;14.404;2022-08-19T11:04:19;10.23;;;9.13;;
65656;SDS011;57397;50.096;14.404;2022-08-19T11:06:46;10.90;;;9.00;;
65656;SDS011;57397;50.096;14.404;2022-08-19T11:09:29;12.23;;;9.40;;
65656;SDS011;57397;50.096;14.404;2022-08-19T11:11:56;11.73;;;9.07;;
65656;SDS011;57397;50.096;14.404;2022-08-19T11:14:23;11.43;;;9.40;;
65656;SDS011;57397;50.096;14.404;2022-08-19T11:16:51;10.82;;;9.13;;
65656;SDS011;57397;50.096;14.404;2022-08-19T11:19:18;10.52;;;9.43;;
65656;SDS011;57397;50.096;14.404;2022-08-19T11:21:45;11.48;;;9.23;;
65656;SDS011;57397;50.096;14.404;2022-08-19T11:24:13;14.77;;;9.93;;
65656;SDS011;57397;50.096;14.404;2022-08-19T11:26:41;12.32;;;9.23;;
65656;SDS011;57397;50.096;14.404;2022-08-19T11:29:07;10.70;;;9.60;;
65656;SDS011;57397;50.096;14.404;2022-08-19T11:31:37;10.25;;;8.75;;
65656;SDS011;57397;50.096;14.404;2022-08-19T11:34:08;10.20;;;8.98;;
65656;SDS011;57397;50.096;14.404;2022-08-19T11:36:36;10.35;;;9.25;;
65656;SDS011;57397;50.096;14.404;2022-08-19T11:39:04;10.20;;;9.07;;
65656;SDS011;57397;50.096;14.404;2022-08-19T11:41:30;10.80;;;8.95;;
65656;SDS011;57397;50.096;14.404;2022-08-19T11:43:56;10.13;;;8.75;;
65656;SDS011;57397;50.096;14.404;2022-08-19T11:46:23;10.27;;;8.88;;
65656;SDS011;57397;50.096;14.404;2022-08-19T11:48:49;11.02;;;9.55;;
65656;SDS011;57397;50.096;14.404;2022-08-19T11:51:16;11.80;;;9.25;;
65656;SDS011;57397;50.096;14.404;2022-08-19T11:53:44;9.93;;;8.32;;
65656;SDS011;57397;50.096;14.404;2022-08-19T11:56:10;10.90;;;8.95;;
65656;SDS011;57397;50.096;14.404;2022-08-19T11:58:37;9.98;;;8.88;;
65656;SDS011;57397;50.096;14.404;2022-08-19T12:01:09;10.77;;;9.52;;
65656;SDS011;57397;50.096;14.404;2022-08-19T12:03:40;10.57;;;9.43;;
65656;SDS011;57397;50.096;14.404;2022-08-19T12:06:06;10.38;;;9.23;;
65656;SDS011;57397;50.096;14.404;2022-08-19T12:08:33;10.68;;;8.88;;
65656;SDS011;57397;50.096;14.404;2022-08-19T12:10:58;10.07;;;8.98;;
65656;SDS011;57397;50.096;14.404;2022-08-19T12:13:26;10.57;;;8.95;;
65656;SDS011;57397;50.096;14.404;2022-08-19T12:15:52;9.75;;;8.73;;
65656;SDS011;57397;50.096;14.404;2022-08-19T12:18:19;9.35;;;8.35;;
65656;SDS011;57397;50.096;14.404;2022-08-19T12:20:44;9.98;;;8.45;;
65656;SDS011;57397;50.096;14.404;2022-08-19T12:23:11;10.57;;;9.10;;
65656;SDS011;57397;50.096;14.404;2022-08-19T12:25:36;10.05;;;8.25;;
65656;SDS011;57397;50.096;14.404;2022-08-19T12:28:03;10.45;;;8.75;;
65656;SDS011;57397;50.096;14.404;2022-08-19T12:30:28;10.57;;;8.43;;
65656;SDS011;57397;50.096;14.404;2022-08-19T12:32:54;10.10;;;8.70;;
65656;SDS011;57397;50.096;14.404;2022-08-19T12:35:20;11.50;;;8.85;;
65656;SDS011;57397;50.096;14.404;2022-08-19T12:37:46;11.10;;;8.65;;
65656;SDS011;57397;50.096;14.404;2022-08-19T12:40:13;11.77;;;8.63;;
65656;SDS011;57397;50.096;14.404;2022-08-19T12:42:40;9.20;;;8.30;;
65656;SDS011;57397;50.096;14.404;2022-08-19T12:45:10;9.02;;;8.13;;
65656;SDS011;57397;50.096;14.404;2022-08-19T12:47:36;10.65;;;8.50;;
65656;SDS011;57397;50.096;14.404;2022-08-19T12:50:03;9.50;;;8.25;;
65656;SDS011;57397;50.096;14.404;2022-08-19T12:52:32;8.80;;;7.90;;
65656;SDS011;57397;50.096;14.404;2022-08-19T12:54:58;10.07;;;8.25;;
65656;SDS011;57397;50.096;14.404;2022-08-19T12:57:24;10.18;;;8.55;;
65656;SDS011;57397;50.096;14.404;2022-08-19T12:59:53;9.93;;;8.02;;
65656;SDS011;57397;50.096;14.404;2022-08-19T13:02:19;10.43;;;8.57;;
65656;SDS011;57397;50.096;14.404;2022-08-19T13:04:47;10.13;;;8.48;;
65656;SDS011;57397;50.096;14.404;2022-08-19T13:07:13;9.02;;;8.13;;
65656;SDS011;57397;50.096;14.404;2022-08-19T13:09:41;9.95;;;8.50;;
65656;SDS011;57397;50.096;14.404;2022-08-19T13:12:07;9.23;;;8.32;;
65656;SDS011;57397;50.096;14.404;2022-08-19T13:14:37;9.23;;;8.32;;
65656;SDS011;57397;50.096;14.404;2022-08-19T13:17:05;9.00;;;8.07;;
65656;SDS011;57397;50.096;14.404;2022-08-19T13:19:31;9.93;;;8.05;;
65656;SDS011;57397;50.096;14.404;2022-08-19T13:21:57;9.43;;;8.18;;
65656;SDS011;57397;50.096;14.404;2022-08-19T13:24:23;11.77;;;8.32;;
65656;SDS011;57397;50.096;14.404;2022-08-19T13:26:49;10.07;;;8.13;;
65656;SDS011;57397;50.096;14.404;2022-08-19T13:29:16;9.50;;;7.90;;
65656;SDS011;57397;50.096;14.404;2022-08-19T13:32:00;10.63;;;8.60;;
65656;SDS011;57397;50.096;14.404;2022-08-19T13:34:43;9.80;;;8.13;;
65656;SDS011;57397;50.096;14.404;2022-08-19T13:37:11;9.23;;;8.32;;
65656;SDS011;57397;50.096;14.404;2022-08-19T13:39:37;10.18;;;8.00;;
65656;SDS011;57397;50.096;14.404;2022-08-19T13:42:02;8.48;;;7.57;;
65656;SDS011;57397;50.096;14.404;2022-08-19T13:44:35;8.88;;;7.40;;
65656;SDS011;57397;50.096;14.404;2022-08-19T13:47:01;9.30;;;7.63;;
65656;SDS011;57397;50.096;14.404;2022-08-19T13:49:33;8.43;;;7.53;;
65656;SDS011;57397;50.096;14.404;2022-08-19T13:51:59;9.30;;;7.85;;
65656;SDS011;57397;50.096;14.404;2022-08-19T13:54:25;9.90;;;7.63;;
65656;SDS011;57397;50.096;14.404;2022-08-19T13:56:51;8.73;;;7.43;;
65656;SDS011;57397;50.096;14.404;2022-08-19T13:59:17;8.13;;;7.13;;
65656;SDS011;57397;50.096;14.404;2022-08-19T14:01:42;8.45;;;7.65;;
65656;SDS011;57397;50.096;14.404;2022-08-19T14:04:08;9.02;;;7.70;;
65656;SDS011;57397;50.096;14.404;2022-08-19T14:06:34;8.82;;;7.80;;
65656;SDS011;57397;50.096;14.404;2022-08-19T14:08:59;8.57;;;7.68;;
65656;SDS011;57397;50.096;14.404;2022-08-19T14:11:26;8.45;;;7.45;;
65656;SDS011;57397;50.096;14.404;2022-08-19T14:13:52;8.57;;;7.10;;
65656;SDS011;57397;50.096;14.404;2022-08-19T14:16:18;9.13;;;8.13;;
65656;SDS011;57397;50.096;14.404;2022-08-19T14:18:43;8.10;;;7.30;;
65656;SDS011;57397;50.096;14.404;2022-08-19T14:21:14;8.38;;;7.40;;
65656;SDS011;57397;50.096;14.404;2022-08-19T14:23:42;8.88;;;7.40;;
65656;SDS011;57397;50.096;14.404;2022-08-19T14:26:09;8.25;;;7.32;;
65656;SDS011;57397;50.096;14.404;2022-08-19T14:28:36;8.77;;;7.47;;
65656;SDS011;57397;50.096;14.404;2022-08-19T14:31:04;8.35;;;7.00;;
65656;SDS011;57397;50.096;14.404;2022-08-19T14:33:30;7.30;;;6.53;;
65656;SDS011;57397;50.096;14.404;2022-08-19T14:35:57;7.88;;;7.07;;
65656;SDS011;57397;50.096;14.404;2022-08-19T14:38:22;7.38;;;6.68;;
65656;SDS011;57397;50.096;14.404;2022-08-19T14:40:48;7.80;;;6.60;;
65656;SDS011;57397;50.096;14.404;2022-08-19T14:43:14;7.18;;;6.40;;
65656;SDS011;57397;50.096;14.404;2022-08-19T14:45:39;7.05;;;6.35;;
65656;SDS011;57397;50.096;14.404;2022-08-19T14:48:06;7.70;;;6.45;;
65656;SDS011;57397;50.096;14.404;2022-08-19T14:50:33;7.65;;;6.50;;
65656;SDS011;57397;50.096;14.404;2022-08-19T14:53:00;7.43;;;6.65;;